logo
Search for airport 
image banner adimage banner adimage banner ad
image banner ad

YFRI - Friendly Beaches Airport

Located in Friendly Beaches, Australia

ICAO - YFRI, IATA -

Data provided by Airmate  

General information

Coordinates: S41°59'59" E148°15'32"
Elevation is 79 feet MSL.
Magnetic variation is 15° East
View others Airports in Tasmania

Operational data

Special qualification required
Current time UTC:
Current local time:
Weather at : - ( 0 km )
METAR: LWSK 131620Z 01010KT 9999 FEW049 25/11 Q1022 NOSIG
View NOTAMs / SUP AIP / TFR affecting this airport [VIEW]
Communications frequencies: [VIEW]

Runways:

RWY identifierQFULength (ft)Width (ft)SurfaceLDA (ft)
28291°299614DIRT
10111°299614DIRT

Airport contact information

Address: Friendly Beaches Australia

Satellite view of YFRI